Terminal Aerodrome Forecast
Issued by NWS Corpus Christi, TX

Home | Current Version | Previous Version | Text Only | Print | Product List | Glossary On
Versions: 1 2 3 4 5 6 7 8 9 10 11 12 13 14 15 16 17 18
109
FTUS44 KCRP 281459 AAA
TAFVCT
TAF AMD
KVCT 281459Z 2815/2912 13015KT P6SM SCT025
      TEMPO 2815/2818 BKN025
     FM282000 14018G25KT P6SM SCT035
     FM290300 14012KT P6SM VCSH SCT015 BKN025 OVC100
      TEMPO 2908/2912 VRB15G30KT 3SM TSRA BKN012CB OVC020=

USA.gov is the U.S. government's official web portal to all federal, state and local government web resources and services.